Maija — OI5359 — position and weather

sailwx.info

Track history (hours):
 
Tides and Currents Weather Stations Pressure Air Temp Water Temp Dewpoint Dewpoint Depression Visibility Wind Speed Wind Dir Waves Ship Positions

Maija

Last reported at 2016-Jun-26 12:28 UTC. Time now 2016-Jun-26 13:52 UTC.
Position N 59°54' E 023°19'.

Length 15 m.

Type: Diving. MMSI: 230030370.

Date/timePositionNaut miles runAvg speedWind from/ knotsBaromVisibWave heightAir tempDewpointWater temp
2016-Jun-26 12:28N 59°54' E 023°19'3 0.5
2016-Jun-26 05:32N 59°52' E 023°23'0 0.0
2016-Jun-26 04:08N 59°52' E 023°23'0 0.0
2016-Jun-26 03:32N 59°52' E 023°23'0 0.0
2016-Jun-26 02:26N 59°52' E 023°23'0 0.0
2016-Jun-26 01:26N 59°52' E 023°23'0 0.0
2016-Jun-26 00:32N 59°52' E 023°23'0 0.0
2016-Jun-25 23:32N 59°52' E 023°23'0 0.0
2016-Jun-25 22:29N 59°52' E 023°23'0 0.0
2016-Jun-25 21:32N 59°52' E 023°23'0 0.0
2016-Jun-25 19:26N 59°52' E 023°23'0 0.0
2016-Jun-25 18:32N 59°52' E 023°23'2 1.6
2016-Jun-25 17:29N 59°51' E 023°27'6 6.7
2016-Jun-25 16:31N 59°53' E 023°39'  
2016-Jun-22 15:11N 59°54' E 023°43'4 7.1
2016-Jun-22 14:33N 59°52' E 023°36'2 2.4
2016-Jun-22 13:31N 59°49' E 023°34'0 0.0
2016-Jun-22 12:31N 59°49' E 023°34'2 1.6
2016-Jun-22 11:33N 59°48' E 023°34'0 0.2
2016-Jun-22 10:25N 59°48' E 023°34'0 0.1
2016-Jun-22 08:32N 59°47' E 023°34'2 1.9
2016-Jun-22 07:32N 59°49' E 023°34'0 0.0
2016-Jun-22 06:29N 59°49' E 023°34'0 0.0
2016-Jun-22 05:32N 59°49' E 023°34'0 0.0
2016-Jun-22 04:32N 59°49' E 023°34'0 0.0
2016-Jun-22 03:32N 59°49' E 023°34'0 0.0
2016-Jun-22 02:29N 59°49' E 023°34'0 0.0
2016-Jun-22 01:32N 59°49' E 023°34'0 0.0
2016-Jun-22 00:32N 59°49' E 023°34'0 0.0
2016-Jun-21 23:29N 59°49' E 023°34'0 0.0
2016-Jun-21 22:32N 59°49' E 023°34'0 0.0
2016-Jun-21 21:32N 59°49' E 023°34'0 0.0
2016-Jun-21 20:32N 59°49' E 023°34'0 0.0
2016-Jun-21 19:32N 59°49' E 023°34'0 0.0
2016-Jun-21 18:32N 59°49' E 023°34'0 0.0
2016-Jun-21 17:32N 59°49' E 023°34'0 0.0
2016-Jun-21 16:33N 59°49' E 023°34'2 1.7
2016-Jun-21 15:28N 59°48' E 023°34'0 0.0
2016-Jun-21 14:28N 59°48' E 023°34'0 0.0
2016-Jun-21 13:30N 59°48' E 023°34'2 1.9
2016-Jun-21 12:32N 59°49' E 023°34'0 0.0
2016-Jun-21 11:23N 59°49' E 023°34'0 0.0
2016-Jun-21 10:32N 59°49' E 023°34'1 0.7
2016-Jun-21 09:32N 59°49' E 023°34'1 1.3
2016-Jun-21 08:28N 59°48' E 023°34'0 0.0
2016-Jun-21 07:33N 59°48' E 023°34'0 0.0
2016-Jun-21 06:33N 59°48' E 023°34'2 0.9
2016-Jun-21 04:31N 59°49' E 023°34'0 0.0
2016-Jun-21 03:31N 59°49' E 023°34'0 0.0
2016-Jun-21 02:31N 59°49' E 023°34'0 0.0
2016-Jun-21 01:31N 59°49' E 023°34'0 0.0
2016-Jun-21 00:31N 59°49' E 023°34'0 0.0
2016-Jun-20 23:31N 59°49' E 023°34'0 0.0
2016-Jun-20 22:31N 59°49' E 023°34'0 0.0
2016-Jun-20 21:31N 59°49' E 023°34'0 0.0
2016-Jun-20 20:31N 59°49' E 023°34'0 0.0
2016-Jun-20 19:31N 59°49' E 023°34'0 0.0
2016-Jun-20 18:31N 59°49' E 023°34'0 0.0
2016-Jun-20 17:31N 59°49' E 023°34'0 0.0
2016-Jun-20 16:31N 59°49' E 023°34'0 0.4
2016-Jun-20 15:33N 59°49' E 023°34'1 0.9
2016-Jun-20 14:32N 59°50' E 023°34'0 0.2
2016-Jun-20 13:33N 59°50' E 023°34'1 0.6
2016-Jun-20 12:33N 59°49' E 023°34'0 0.0
2016-Jun-20 11:33N 59°49' E 023°34'0 0.0
2016-Jun-20 10:33N 59°49' E 023°34'1 0.6
2016-Jun-20 09:34N 59°50' E 023°34'0 0.0
2016-Jun-20 08:32N 59°50' E 023°34'0 0.0
2016-Jun-20 07:32N 59°50' E 023°34'1 1.0
2016-Jun-20 06:33N 59°49' E 023°34'1 0.5
2016-Jun-20 05:29N 59°49' E 023°34'0 0.0
2016-Jun-20 04:32N 59°49' E 023°34'0 0.0
2016-Jun-20 03:32N 59°49' E 023°34'0 0.0
2016-Jun-20 02:26N 59°49' E 023°34'0 0.0
2016-Jun-20 01:32N 59°49' E 023°34'0 0.0
2016-Jun-20 00:32N 59°49' E 023°34'0 0.0
2016-Jun-19 23:32N 59°49' E 023°34'0 0.0
2016-Jun-19 22:32N 59°49' E 023°34'0 0.0
2016-Jun-19 21:32N 59°49' E 023°34'0 0.0
2016-Jun-19 20:32N 59°49' E 023°34'0 0.0
2016-Jun-19 19:32N 59°49' E 023°34'0 0.0
2016-Jun-19 18:32N 59°49' E 023°34'0 0.0
2016-Jun-19 17:32N 59°49' E 023°34'0 0.0
2016-Jun-19 16:32N 59°49' E 023°34'0 0.0
2016-Jun-19 15:32N 59°49' E 023°34'0 0.0
2016-Jun-19 14:32N 59°49' E 023°34'0 0.0
2016-Jun-19 13:32N 59°49' E 023°34'0 0.0
2016-Jun-19 12:32N 59°49' E 023°34'0 0.0
2016-Jun-19 11:32N 59°49' E 023°34'0 0.3
2016-Jun-19 10:32N 59°49' E 023°34'6 5.7
2016-Jun-19 09:32N 59°54' E 023°41'  
Track history (hours):
 
Tides and Currents Weather Stations Pressure Air Temp Water Temp Dewpoint Dewpoint Depression Visibility Wind Speed Wind Dir Waves Ship Positions

Maija

Last reported at 2016-Jun-26 12:28 UTC. Time now 2016-Jun-26 13:52 UTC.
Position N 59°54' E 023°19'.

Length 15 m.

Type: Diving. MMSI: 230030370.

Date/timePositionNaut miles runAvg speedWind from/ knotsBaromVisibWave heightAir tempDewpointWater temp
2016-Jun-26 12:28N 59°54' E 023°19'3 0.5
2016-Jun-26 05:32N 59°52' E 023°23'0 0.0
2016-Jun-26 04:08N 59°52' E 023°23'0 0.0
2016-Jun-26 03:32N 59°52' E 023°23'0 0.0
2016-Jun-26 02:26N 59°52' E 023°23'0 0.0
2016-Jun-26 01:26N 59°52' E 023°23'0 0.0
2016-Jun-26 00:32N 59°52' E 023°23'0 0.0
2016-Jun-25 23:32N 59°52' E 023°23'0 0.0
2016-Jun-25 22:29N 59°52' E 023°23'0 0.0
2016-Jun-25 21:32N 59°52' E 023°23'0 0.0
2016-Jun-25 19:26N 59°52' E 023°23'0 0.0
2016-Jun-25 18:32N 59°52' E 023°23'2 1.6
2016-Jun-25 17:29N 59°51' E 023°27'6 6.7
2016-Jun-25 16:31N 59°53' E 023°39'  
2016-Jun-22 15:11N 59°54' E 023°43'4 7.1
2016-Jun-22 14:33N 59°52' E 023°36'2 2.4
2016-Jun-22 13:31N 59°49' E 023°34'0 0.0
2016-Jun-22 12:31N 59°49' E 023°34'2 1.6
2016-Jun-22 11:33N 59°48' E 023°34'0 0.2
2016-Jun-22 10:25N 59°48' E 023°34'0 0.1
2016-Jun-22 08:32N 59°47' E 023°34'2 1.9
2016-Jun-22 07:32N 59°49' E 023°34'0 0.0
2016-Jun-22 06:29N 59°49' E 023°34'0 0.0
2016-Jun-22 05:32N 59°49' E 023°34'0 0.0
2016-Jun-22 04:32N 59°49' E 023°34'0 0.0
2016-Jun-22 03:32N 59°49' E 023°34'0 0.0
2016-Jun-22 02:29N 59°49' E 023°34'0 0.0
2016-Jun-22 01:32N 59°49' E 023°34'0 0.0
2016-Jun-22 00:32N 59°49' E 023°34'0 0.0
2016-Jun-21 23:29N 59°49' E 023°34'0 0.0
2016-Jun-21 22:32N 59°49' E 023°34'0 0.0
2016-Jun-21 21:32N 59°49' E 023°34'0 0.0
2016-Jun-21 20:32N 59°49' E 023°34'0 0.0
2016-Jun-21 19:32N 59°49' E 023°34'0 0.0
2016-Jun-21 18:32N 59°49' E 023°34'0 0.0
2016-Jun-21 17:32N 59°49' E 023°34'0 0.0
2016-Jun-21 16:33N 59°49' E 023°34'2 1.7
2016-Jun-21 15:28N 59°48' E 023°34'0 0.0
2016-Jun-21 14:28N 59°48' E 023°34'0 0.0
2016-Jun-21 13:30N 59°48' E 023°34'2 1.9
2016-Jun-21 12:32N 59°49' E 023°34'0 0.0
2016-Jun-21 11:23N 59°49' E 023°34'0 0.0
2016-Jun-21 10:32N 59°49' E 023°34'1 0.7
2016-Jun-21 09:32N 59°49' E 023°34'1 1.3
2016-Jun-21 08:28N 59°48' E 023°34'0 0.0
2016-Jun-21 07:33N 59°48' E 023°34'0 0.0
2016-Jun-21 06:33N 59°48' E 023°34'2 0.9
2016-Jun-21 04:31N 59°49' E 023°34'0 0.0
2016-Jun-21 03:31N 59°49' E 023°34'0 0.0
2016-Jun-21 02:31N 59°49' E 023°34'0 0.0
2016-Jun-21 01:31N 59°49' E 023°34'0 0.0
2016-Jun-21 00:31N 59°49' E 023°34'0 0.0
2016-Jun-20 23:31N 59°49' E 023°34'0 0.0
2016-Jun-20 22:31N 59°49' E 023°34'0 0.0
2016-Jun-20 21:31N 59°49' E 023°34'0 0.0
2016-Jun-20 20:31N 59°49' E 023°34'0 0.0
2016-Jun-20 19:31N 59°49' E 023°34'0 0.0
2016-Jun-20 18:31N 59°49' E 023°34'0 0.0
2016-Jun-20 17:31N 59°49' E 023°34'0 0.0
2016-Jun-20 16:31N 59°49' E 023°34'0 0.4
2016-Jun-20 15:33N 59°49' E 023°34'1 0.9
2016-Jun-20 14:32N 59°50' E 023°34'0 0.2
2016-Jun-20 13:33N 59°50' E 023°34'1 0.6
2016-Jun-20 12:33N 59°49' E 023°34'0 0.0
2016-Jun-20 11:33N 59°49' E 023°34'0 0.0
2016-Jun-20 10:33N 59°49' E 023°34'1 0.6
2016-Jun-20 09:34N 59°50' E 023°34'0 0.0
2016-Jun-20 08:32N 59°50' E 023°34'0 0.0
2016-Jun-20 07:32N 59°50' E 023°34'1 1.0
2016-Jun-20 06:33N 59°49' E 023°34'1 0.5
2016-Jun-20 05:29N 59°49' E 023°34'0 0.0
2016-Jun-20 04:32N 59°49' E 023°34'0 0.0
2016-Jun-20 03:32N 59°49' E 023°34'0 0.0
2016-Jun-20 02:26N 59°49' E 023°34'0 0.0
2016-Jun-20 01:32N 59°49' E 023°34'0 0.0
2016-Jun-20 00:32N 59°49' E 023°34'0 0.0
2016-Jun-19 23:32N 59°49' E 023°34'0 0.0
2016-Jun-19 22:32N 59°49' E 023°34'0 0.0
2016-Jun-19 21:32N 59°49' E 023°34'0 0.0
2016-Jun-19 20:32N 59°49' E 023°34'0 0.0
2016-Jun-19 19:32N 59°49' E 023°34'0 0.0
2016-Jun-19 18:32N 59°49' E 023°34'0 0.0
2016-Jun-19 17:32N 59°49' E 023°34'0 0.0
2016-Jun-19 16:32N 59°49' E 023°34'0 0.0
2016-Jun-19 15:32N 59°49' E 023°34'0 0.0
2016-Jun-19 14:32N 59°49' E 023°34'0 0.0
2016-Jun-19 13:32N 59°49' E 023°34'0 0.0
2016-Jun-19 12:32N 59°49' E 023°34'0 0.0
2016-Jun-19 11:32N 59°49' E 023°34'0 0.3
2016-Jun-19 10:32N 59°49' E 023°34'6 5.7
2016-Jun-19 09:32N 59°54' E 023°41'  

Dump ship's entire track history